sensor_id;sensor_type;location;lat;lon;timestamp;P1;durP1;ratioP1;P2;durP2;ratioP2
48403;SDS011;34202;52.536;6.042;2023-07-22T00:04:23;13.90;;;7.70;;
48403;SDS011;34202;52.536;6.042;2023-07-22T00:09:23;12.70;;;8.00;;
48403;SDS011;34202;52.536;6.042;2023-07-22T00:14:24;13.90;;;7.80;;
48403;SDS011;34202;52.536;6.042;2023-07-22T00:19:24;12.80;;;7.40;;
48403;SDS011;34202;52.536;6.042;2023-07-22T00:24:24;12.30;;;7.20;;
48403;SDS011;34202;52.536;6.042;2023-07-22T00:29:25;10.80;;;7.20;;
48403;SDS011;34202;52.536;6.042;2023-07-22T00:34:26;12.40;;;8.20;;
48403;SDS011;34202;52.536;6.042;2023-07-22T00:39:26;10.00;;;7.60;;
48403;SDS011;34202;52.536;6.042;2023-07-22T00:44:26;9.30;;;6.70;;
48403;SDS011;34202;52.536;6.042;2023-07-22T00:49:27;10.50;;;6.90;;
48403;SDS011;34202;52.536;6.042;2023-07-22T00:54:30;8.80;;;7.10;;
48403;SDS011;34202;52.536;6.042;2023-07-22T00:59:31;13.70;;;7.80;;
48403;SDS011;34202;52.536;6.042;2023-07-22T01:04:32;10.60;;;7.00;;
48403;SDS011;34202;52.536;6.042;2023-07-22T01:09:37;12.20;;;8.50;;
48403;SDS011;34202;52.536;6.042;2023-07-22T01:19:40;12.10;;;8.40;;
48403;SDS011;34202;52.536;6.042;2023-07-22T01:24:41;9.60;;;7.40;;
48403;SDS011;34202;52.536;6.042;2023-07-22T01:29:42;12.70;;;7.70;;
48403;SDS011;34202;52.536;6.042;2023-07-22T01:34:43;8.30;;;6.60;;
48403;SDS011;34202;52.536;6.042;2023-07-22T01:39:43;10.60;;;6.70;;
48403;SDS011;34202;52.536;6.042;2023-07-22T01:44:44;8.90;;;7.20;;
48403;SDS011;34202;52.536;6.042;2023-07-22T01:49:44;10.60;;;7.80;;
48403;SDS011;34202;52.536;6.042;2023-07-22T01:54:45;10.30;;;7.50;;
48403;SDS011;34202;52.536;6.042;2023-07-22T01:59:45;11.20;;;7.60;;
48403;SDS011;34202;52.536;6.042;2023-07-22T02:04:45;12.60;;;7.90;;
48403;SDS011;34202;52.536;6.042;2023-07-22T02:09:46;13.70;;;8.40;;
48403;SDS011;34202;52.536;6.042;2023-07-22T02:14:46;11.90;;;8.70;;
48403;SDS011;34202;52.536;6.042;2023-07-22T02:19:46;14.70;;;9.20;;
48403;SDS011;34202;52.536;6.042;2023-07-22T02:24:47;12.90;;;8.60;;
48403;SDS011;34202;52.536;6.042;2023-07-22T02:29:48;18.30;;;10.00;;
48403;SDS011;34202;52.536;6.042;2023-07-22T02:34:48;13.20;;;9.00;;
48403;SDS011;34202;52.536;6.042;2023-07-22T02:39:48;17.90;;;11.40;;
48403;SDS011;34202;52.536;6.042;2023-07-22T02:44:49;14.10;;;8.80;;
48403;SDS011;34202;52.536;6.042;2023-07-22T02:49:49;16.30;;;10.80;;
48403;SDS011;34202;52.536;6.042;2023-07-22T02:55:06;13.90;;;9.60;;
48403;SDS011;34202;52.536;6.042;2023-07-22T03:00:17;12.80;;;10.10;;
48403;SDS011;34202;52.536;6.042;2023-07-22T03:05:25;14.70;;;9.20;;
48403;SDS011;34202;52.536;6.042;2023-07-22T03:10:26;13.40;;;9.40;;
48403;SDS011;34202;52.536;6.042;2023-07-22T03:15:26;12.00;;;9.30;;
48403;SDS011;34202;52.536;6.042;2023-07-22T03:20:28;14.50;;;10.20;;
48403;SDS011;34202;52.536;6.042;2023-07-22T03:25:28;14.50;;;9.80;;
48403;SDS011;34202;52.536;6.042;2023-07-22T03:30:28;14.30;;;9.50;;
48403;SDS011;34202;52.536;6.042;2023-07-22T03:35:29;15.00;;;11.30;;
48403;SDS011;34202;52.536;6.042;2023-07-22T03:40:29;16.70;;;11.40;;
48403;SDS011;34202;52.536;6.042;2023-07-22T03:45:30;13.40;;;9.80;;
48403;SDS011;34202;52.536;6.042;2023-07-22T03:50:31;15.50;;;9.60;;
48403;SDS011;34202;52.536;6.042;2023-07-22T03:55:31;16.40;;;11.40;;
48403;SDS011;34202;52.536;6.042;2023-07-22T04:00:32;15.40;;;10.70;;
48403;SDS011;34202;52.536;6.042;2023-07-22T04:05:32;16.60;;;10.30;;
48403;SDS011;34202;52.536;6.042;2023-07-22T04:10:32;18.20;;;10.70;;
48403;SDS011;34202;52.536;6.042;2023-07-22T04:15:33;15.70;;;10.70;;
48403;SDS011;34202;52.536;6.042;2023-07-22T04:20:33;18.10;;;11.00;;
48403;SDS011;34202;52.536;6.042;2023-07-22T04:25:38;16.90;;;11.50;;
48403;SDS011;34202;52.536;6.042;2023-07-22T04:30:39;19.20;;;11.60;;
48403;SDS011;34202;52.536;6.042;2023-07-22T04:35:40;19.80;;;12.70;;
48403;SDS011;34202;52.536;6.042;2023-07-22T04:40:44;18.40;;;11.40;;
48403;SDS011;34202;52.536;6.042;2023-07-22T04:45:45;23.00;;;13.00;;
48403;SDS011;34202;52.536;6.042;2023-07-22T04:50:47;18.50;;;12.50;;
48403;SDS011;34202;52.536;6.042;2023-07-22T04:55:48;19.20;;;13.60;;
48403;SDS011;34202;52.536;6.042;2023-07-22T05:00:48;21.30;;;12.80;;
48403;SDS011;34202;52.536;6.042;2023-07-22T05:05:49;19.80;;;13.00;;
48403;SDS011;34202;52.536;6.042;2023-07-22T05:10:49;24.90;;;13.70;;
48403;SDS011;34202;52.536;6.042;2023-07-22T05:15:49;19.90;;;13.10;;
48403;SDS011;34202;52.536;6.042;2023-07-22T05:20:50;25.30;;;14.70;;
48403;SDS011;34202;52.536;6.042;2023-07-22T05:25:51;20.90;;;14.00;;
48403;SDS011;34202;52.536;6.042;2023-07-22T05:30:52;19.50;;;13.20;;
48403;SDS011;34202;52.536;6.042;2023-07-22T05:35:52;24.30;;;14.60;;
48403;SDS011;34202;52.536;6.042;2023-07-22T05:40:53;20.30;;;13.70;;
48403;SDS011;34202;52.536;6.042;2023-07-22T05:45:53;19.80;;;13.70;;
48403;SDS011;34202;52.536;6.042;2023-07-22T05:50:53;21.30;;;13.50;;
48403;SDS011;34202;52.536;6.042;2023-07-22T05:55:54;18.60;;;12.50;;
48403;SDS011;34202;52.536;6.042;2023-07-22T06:00:55;22.30;;;13.80;;
48403;SDS011;34202;52.536;6.042;2023-07-22T06:05:56;20.20;;;12.90;;
48403;SDS011;34202;52.536;6.042;2023-07-22T06:10:56;20.90;;;12.60;;
48403;SDS011;34202;52.536;6.042;2023-07-22T06:15:57;17.00;;;12.20;;
48403;SDS011;34202;52.536;6.042;2023-07-22T06:20:57;17.20;;;11.90;;
48403;SDS011;34202;52.536;6.042;2023-07-22T06:25:58;16.30;;;11.70;;
48403;SDS011;34202;52.536;6.042;2023-07-22T06:30:58;16.50;;;10.60;;
48403;SDS011;34202;52.536;6.042;2023-07-22T06:35:58;16.40;;;11.60;;
48403;SDS011;34202;52.536;6.042;2023-07-22T06:40:59;20.00;;;11.60;;
48403;SDS011;34202;52.536;6.042;2023-07-22T06:46:00;18.30;;;11.40;;
48403;SDS011;34202;52.536;6.042;2023-07-22T06:51:00;16.20;;;10.20;;
48403;SDS011;34202;52.536;6.042;2023-07-22T06:56:00;15.00;;;10.50;;
48403;SDS011;34202;52.536;6.042;2023-07-22T07:01:01;20.50;;;10.30;;
48403;SDS011;34202;52.536;6.042;2023-07-22T07:06:01;20.40;;;11.10;;
48403;SDS011;34202;52.536;6.042;2023-07-22T07:11:02;16.80;;;11.30;;
48403;SDS011;34202;52.536;6.042;2023-07-22T07:21:26;15.60;;;9.80;;
48403;SDS011;34202;52.536;6.042;2023-07-22T07:26:27;14.70;;;9.60;;
48403;SDS011;34202;52.536;6.042;2023-07-22T07:31:27;12.80;;;8.90;;
48403;SDS011;34202;52.536;6.042;2023-07-22T07:36:27;14.50;;;8.90;;
48403;SDS011;34202;52.536;6.042;2023-07-22T07:41:28;9.50;;;7.00;;
48403;SDS011;34202;52.536;6.042;2023-07-22T07:46:28;14.40;;;8.70;;
48403;SDS011;34202;52.536;6.042;2023-07-22T07:51:30;10.20;;;8.30;;
48403;SDS011;34202;52.536;6.042;2023-07-22T07:56:31;13.40;;;7.10;;
48403;SDS011;34202;52.536;6.042;2023-07-22T08:01:31;11.10;;;6.50;;
48403;SDS011;34202;52.536;6.042;2023-07-22T08:06:32;11.70;;;7.20;;
48403;SDS011;34202;52.536;6.042;2023-07-22T08:11:33;8.40;;;7.00;;
48403;SDS011;34202;52.536;6.042;2023-07-22T08:16:33;8.70;;;7.20;;
48403;SDS011;34202;52.536;6.042;2023-07-22T08:21:33;8.80;;;5.80;;
48403;SDS011;34202;52.536;6.042;2023-07-22T08:26:34;12.60;;;6.40;;
48403;SDS011;34202;52.536;6.042;2023-07-22T08:31:34;10.40;;;6.50;;
48403;SDS011;34202;52.536;6.042;2023-07-22T08:36:36;10.20;;;8.50;;
48403;SDS011;34202;52.536;6.042;2023-07-22T08:41:36;12.50;;;8.10;;
48403;SDS011;34202;52.536;6.042;2023-07-22T08:46:37;13.70;;;8.90;;
48403;SDS011;34202;52.536;6.042;2023-07-22T08:51:39;12.10;;;8.70;;
48403;SDS011;34202;52.536;6.042;2023-07-22T08:56:40;11.80;;;9.00;;
48403;SDS011;34202;52.536;6.042;2023-07-22T09:01:42;16.70;;;10.20;;
48403;SDS011;34202;52.536;6.042;2023-07-22T09:06:44;19.20;;;10.20;;
48403;SDS011;34202;52.536;6.042;2023-07-22T09:11:45;17.50;;;9.50;;
48403;SDS011;34202;52.536;6.042;2023-07-22T09:16:47;12.50;;;8.20;;
48403;SDS011;34202;52.536;6.042;2023-07-22T09:21:47;12.20;;;8.20;;
48403;SDS011;34202;52.536;6.042;2023-07-22T09:26:48;12.20;;;7.80;;
48403;SDS011;34202;52.536;6.042;2023-07-22T09:31:50;11.00;;;7.20;;
48403;SDS011;34202;52.536;6.042;2023-07-22T09:36:54;8.80;;;5.50;;
48403;SDS011;34202;52.536;6.042;2023-07-22T09:41:56;8.20;;;5.20;;
48403;SDS011;34202;52.536;6.042;2023-07-22T09:46:59;8.60;;;4.30;;
48403;SDS011;34202;52.536;6.042;2023-07-22T09:52:10;6.00;;;5.00;;
48403;SDS011;34202;52.536;6.042;2023-07-22T09:57:14;13.40;;;5.30;;
48403;SDS011;34202;52.536;6.042;2023-07-22T10:02:14;7.60;;;4.50;;
48403;SDS011;34202;52.536;6.042;2023-07-22T10:07:19;5.50;;;4.20;;
48403;SDS011;34202;52.536;6.042;2023-07-22T10:12:20;9.70;;;3.80;;
48403;SDS011;34202;52.536;6.042;2023-07-22T10:17:21;10.00;;;5.90;;
48403;SDS011;34202;52.536;6.042;2023-07-22T10:22:22;6.80;;;5.00;;
48403;SDS011;34202;52.536;6.042;2023-07-22T10:27:23;7.30;;;4.60;;
48403;SDS011;34202;52.536;6.042;2023-07-22T10:32:23;5.40;;;4.40;;
48403;SDS011;34202;52.536;6.042;2023-07-22T10:37:31;6.10;;;5.10;;
48403;SDS011;34202;52.536;6.042;2023-07-22T10:42:34;6.20;;;5.60;;
48403;SDS011;34202;52.536;6.042;2023-07-22T10:47:34;12.80;;;7.10;;
48403;SDS011;34202;52.536;6.042;2023-07-22T10:52:45;8.50;;;7.30;;
48403;SDS011;34202;52.536;6.042;2023-07-22T10:57:47;8.70;;;7.80;;
48403;SDS011;34202;52.536;6.042;2023-07-22T11:03:09;9.00;;;8.00;;
48403;SDS011;34202;52.536;6.042;2023-07-22T11:08:12;8.60;;;7.70;;
48403;SDS011;34202;52.536;6.042;2023-07-22T11:13:13;6.60;;;6.00;;
48403;SDS011;34202;52.536;6.042;2023-07-22T11:18:14;8.40;;;6.70;;
48403;SDS011;34202;52.536;6.042;2023-07-22T11:23:15;8.30;;;7.60;;
48403;SDS011;34202;52.536;6.042;2023-07-22T11:28:15;7.80;;;6.90;;
48403;SDS011;34202;52.536;6.042;2023-07-22T11:33:15;8.80;;;5.90;;
48403;SDS011;34202;52.536;6.042;2023-07-22T11:38:16;10.60;;;6.60;;
48403;SDS011;34202;52.536;6.042;2023-07-22T11:43:16;11.50;;;6.20;;
48403;SDS011;34202;52.536;6.042;2023-07-22T11:48:17;8.90;;;6.80;;
48403;SDS011;34202;52.536;6.042;2023-07-22T11:53:17;7.30;;;5.90;;
48403;SDS011;34202;52.536;6.042;2023-07-22T11:58:27;9.90;;;6.80;;
48403;SDS011;34202;52.536;6.042;2023-07-22T12:03:34;8.60;;;6.20;;
48403;SDS011;34202;52.536;6.042;2023-07-22T12:08:35;6.60;;;5.80;;
48403;SDS011;34202;52.536;6.042;2023-07-22T12:13:38;6.50;;;5.90;;
48403;SDS011;34202;52.536;6.042;2023-07-22T12:18:45;7.20;;;4.30;;
48403;SDS011;34202;52.536;6.042;2023-07-22T12:23:46;7.40;;;4.50;;
48403;SDS011;34202;52.536;6.042;2023-07-22T12:28:46;8.30;;;4.70;;
48403;SDS011;34202;52.536;6.042;2023-07-22T12:33:47;5.10;;;4.00;;
48403;SDS011;34202;52.536;6.042;2023-07-22T12:38:47;7.40;;;4.90;;
48403;SDS011;34202;52.536;6.042;2023-07-22T12:43:47;10.30;;;4.40;;
48403;SDS011;34202;52.536;6.042;2023-07-22T12:48:49;5.70;;;4.90;;
48403;SDS011;34202;52.536;6.042;2023-07-22T12:53:49;6.30;;;5.40;;
48403;SDS011;34202;52.536;6.042;2023-07-22T12:58:50;11.70;;;4.40;;
48403;SDS011;34202;52.536;6.042;2023-07-22T13:03:51;4.90;;;4.40;;
48403;SDS011;34202;52.536;6.042;2023-07-22T13:08:51;5.40;;;4.90;;
48403;SDS011;34202;52.536;6.042;2023-07-22T13:13:51;6.20;;;5.30;;
48403;SDS011;34202;52.536;6.042;2023-07-22T13:18:52;6.90;;;4.70;;
48403;SDS011;34202;52.536;6.042;2023-07-22T13:23:52;6.60;;;4.90;;
48403;SDS011;34202;52.536;6.042;2023-07-22T13:28:52;7.40;;;4.50;;
48403;SDS011;34202;52.536;6.042;2023-07-22T13:33:53;6.10;;;4.50;;
48403;SDS011;34202;52.536;6.042;2023-07-22T13:38:53;8.60;;;5.60;;
48403;SDS011;34202;52.536;6.042;2023-07-22T13:43:53;6.30;;;5.40;;
48403;SDS011;34202;52.536;6.042;2023-07-22T13:48:54;6.30;;;4.60;;
48403;SDS011;34202;52.536;6.042;2023-07-22T13:53:54;10.50;;;5.70;;
48403;SDS011;34202;52.536;6.042;2023-07-22T13:58:55;9.70;;;5.10;;
48403;SDS011;34202;52.536;6.042;2023-07-22T14:03:55;9.60;;;5.40;;
48403;SDS011;34202;52.536;6.042;2023-07-22T14:08:55;9.50;;;5.10;;
48403;SDS011;34202;52.536;6.042;2023-07-22T14:13:56;5.30;;;4.10;;
48403;SDS011;34202;52.536;6.042;2023-07-22T14:18:56;6.90;;;5.30;;
48403;SDS011;34202;52.536;6.042;2023-07-22T14:23:56;7.40;;;5.40;;
48403;SDS011;34202;52.536;6.042;2023-07-22T14:28:57;8.40;;;5.80;;
48403;SDS011;34202;52.536;6.042;2023-07-22T14:33:57;7.60;;;5.50;;
48403;SDS011;34202;52.536;6.042;2023-07-22T14:38:58;9.20;;;5.10;;
48403;SDS011;34202;52.536;6.042;2023-07-22T14:43:58;7.90;;;4.90;;
48403;SDS011;34202;52.536;6.042;2023-07-22T14:48:59;7.50;;;5.40;;
48403;SDS011;34202;52.536;6.042;2023-07-22T14:53:59;7.20;;;5.60;;
48403;SDS011;34202;52.536;6.042;2023-07-22T14:58:59;8.50;;;6.10;;
48403;SDS011;34202;52.536;6.042;2023-07-22T15:04:00;8.80;;;5.80;;
48403;SDS011;34202;52.536;6.042;2023-07-22T15:09:00;9.00;;;6.10;;
48403;SDS011;34202;52.536;6.042;2023-07-22T15:14:02;7.30;;;6.30;;
48403;SDS011;34202;52.536;6.042;2023-07-22T15:19:04;7.80;;;5.20;;
48403;SDS011;34202;52.536;6.042;2023-07-22T15:24:04;7.50;;;5.30;;
48403;SDS011;34202;52.536;6.042;2023-07-22T15:29:05;5.70;;;5.00;;
48403;SDS011;34202;52.536;6.042;2023-07-22T15:34:05;7.00;;;4.90;;
48403;SDS011;34202;52.536;6.042;2023-07-22T15:39:05;12.50;;;6.10;;
48403;SDS011;34202;52.536;6.042;2023-07-22T15:44:06;9.20;;;5.10;;
48403;SDS011;34202;52.536;6.042;2023-07-22T15:49:06;6.40;;;4.90;;
48403;SDS011;34202;52.536;6.042;2023-07-22T15:54:07;6.70;;;5.50;;
48403;SDS011;34202;52.536;6.042;2023-07-22T15:59:07;9.40;;;6.20;;
48403;SDS011;34202;52.536;6.042;2023-07-22T16:04:08;11.60;;;4.70;;
48403;SDS011;34202;52.536;6.042;2023-07-22T16:09:08;5.70;;;4.00;;
48403;SDS011;34202;52.536;6.042;2023-07-22T16:14:08;8.30;;;4.20;;
48403;SDS011;34202;52.536;6.042;2023-07-22T16:19:09;5.40;;;4.10;;
48403;SDS011;34202;52.536;6.042;2023-07-22T16:24:10;6.10;;;4.40;;
48403;SDS011;34202;52.536;6.042;2023-07-22T16:29:10;7.80;;;4.90;;
48403;SDS011;34202;52.536;6.042;2023-07-22T16:34:10;7.60;;;4.50;;
48403;SDS011;34202;52.536;6.042;2023-07-22T16:39:11;5.40;;;4.30;;
48403;SDS011;34202;52.536;6.042;2023-07-22T16:44:11;7.30;;;3.70;;
48403;SDS011;34202;52.536;6.042;2023-07-22T16:49:12;6.30;;;3.90;;
48403;SDS011;34202;52.536;6.042;2023-07-22T16:54:12;5.60;;;3.70;;
48403;SDS011;34202;52.536;6.042;2023-07-22T16:59:13;8.20;;;3.10;;
48403;SDS011;34202;52.536;6.042;2023-07-22T17:04:13;3.80;;;3.00;;
48403;SDS011;34202;52.536;6.042;2023-07-22T17:09:14;5.10;;;3.20;;
48403;SDS011;34202;52.536;6.042;2023-07-22T17:14:14;7.30;;;4.40;;
48403;SDS011;34202;52.536;6.042;2023-07-22T17:19:15;4.20;;;3.50;;
48403;SDS011;34202;52.536;6.042;2023-07-22T17:24:15;7.80;;;3.80;;
48403;SDS011;34202;52.536;6.042;2023-07-22T17:29:15;7.80;;;3.40;;
48403;SDS011;34202;52.536;6.042;2023-07-22T17:34:16;4.10;;;3.50;;
48403;SDS011;34202;52.536;6.042;2023-07-22T17:39:16;4.10;;;3.10;;
48403;SDS011;34202;52.536;6.042;2023-07-22T17:44:16;6.40;;;3.30;;
48403;SDS011;34202;52.536;6.042;2023-07-22T17:49:17;4.90;;;3.70;;
48403;SDS011;34202;52.536;6.042;2023-07-22T17:54:18;5.80;;;3.40;;
48403;SDS011;34202;52.536;6.042;2023-07-22T17:59:18;6.00;;;2.90;;
48403;SDS011;34202;52.536;6.042;2023-07-22T18:04:18;9.20;;;4.80;;
48403;SDS011;34202;52.536;6.042;2023-07-22T18:09:19;6.70;;;3.00;;
48403;SDS011;34202;52.536;6.042;2023-07-22T18:14:19;7.60;;;3.50;;
48403;SDS011;34202;52.536;6.042;2023-07-22T18:19:20;5.50;;;3.90;;
48403;SDS011;34202;52.536;6.042;2023-07-22T18:24:20;3.90;;;3.20;;
48403;SDS011;34202;52.536;6.042;2023-07-22T18:29:20;5.30;;;3.50;;
48403;SDS011;34202;52.536;6.042;2023-07-22T18:34:21;5.40;;;3.10;;
48403;SDS011;34202;52.536;6.042;2023-07-22T18:39:21;5.60;;;3.20;;
48403;SDS011;34202;52.536;6.042;2023-07-22T18:44:23;4.40;;;2.70;;
48403;SDS011;34202;52.536;6.042;2023-07-22T18:49:23;4.40;;;3.10;;
48403;SDS011;34202;52.536;6.042;2023-07-22T18:54:24;3.80;;;2.90;;
48403;SDS011;34202;52.536;6.042;2023-07-22T18:59:24;5.30;;;3.70;;
48403;SDS011;34202;52.536;6.042;2023-07-22T19:04:25;10.20;;;4.20;;
48403;SDS011;34202;52.536;6.042;2023-07-22T19:09:25;5.70;;;3.40;;
48403;SDS011;34202;52.536;6.042;2023-07-22T19:14:26;4.40;;;3.90;;
48403;SDS011;34202;52.536;6.042;2023-07-22T19:19:26;6.20;;;3.90;;
48403;SDS011;34202;52.536;6.042;2023-07-22T19:24:27;7.00;;;4.20;;
48403;SDS011;34202;52.536;6.042;2023-07-22T19:29:27;7.50;;;4.10;;
48403;SDS011;34202;52.536;6.042;2023-07-22T19:34:28;6.80;;;4.00;;
48403;SDS011;34202;52.536;6.042;2023-07-22T19:39:30;8.90;;;4.80;;
48403;SDS011;34202;52.536;6.042;2023-07-22T19:44:31;6.20;;;4.50;;
48403;SDS011;34202;52.536;6.042;2023-07-22T19:49:31;6.80;;;5.20;;
48403;SDS011;34202;52.536;6.042;2023-07-22T19:54:32;5.10;;;4.60;;
48403;SDS011;34202;52.536;6.042;2023-07-22T19:59:32;7.30;;;5.10;;
48403;SDS011;34202;52.536;6.042;2023-07-22T20:04:32;6.90;;;4.90;;
48403;SDS011;34202;52.536;6.042;2023-07-22T20:09:34;5.30;;;4.20;;
48403;SDS011;34202;52.536;6.042;2023-07-22T20:14:34;9.60;;;4.90;;
48403;SDS011;34202;52.536;6.042;2023-07-22T20:19:34;8.10;;;5.50;;
48403;SDS011;34202;52.536;6.042;2023-07-22T20:24:35;8.90;;;4.90;;
48403;SDS011;34202;52.536;6.042;2023-07-22T20:29:38;6.70;;;4.30;;
48403;SDS011;34202;52.536;6.042;2023-07-22T20:34:38;9.00;;;4.40;;
48403;SDS011;34202;52.536;6.042;2023-07-22T20:39:39;8.30;;;4.70;;
48403;SDS011;34202;52.536;6.042;2023-07-22T20:44:39;5.70;;;4.20;;
48403;SDS011;34202;52.536;6.042;2023-07-22T20:49:41;8.20;;;5.00;;
48403;SDS011;34202;52.536;6.042;2023-07-22T20:54:41;6.10;;;4.80;;
48403;SDS011;34202;52.536;6.042;2023-07-22T20:59:46;5.10;;;4.00;;
48403;SDS011;34202;52.536;6.042;2023-07-22T21:04:47;5.40;;;3.40;;
48403;SDS011;34202;52.536;6.042;2023-07-22T21:09:47;6.00;;;3.70;;
48403;SDS011;34202;52.536;6.042;2023-07-22T21:14:48;6.40;;;4.00;;
48403;SDS011;34202;52.536;6.042;2023-07-22T21:19:48;5.20;;;3.20;;
48403;SDS011;34202;52.536;6.042;2023-07-22T21:24:49;6.20;;;3.10;;
48403;SDS011;34202;52.536;6.042;2023-07-22T21:29:50;6.30;;;3.30;;
48403;SDS011;34202;52.536;6.042;2023-07-22T21:34:50;4.10;;;3.10;;
48403;SDS011;34202;52.536;6.042;2023-07-22T21:39:50;8.30;;;3.30;;
48403;SDS011;34202;52.536;6.042;2023-07-22T21:44:51;6.10;;;3.60;;
48403;SDS011;34202;52.536;6.042;2023-07-22T21:49:51;5.90;;;3.80;;
48403;SDS011;34202;52.536;6.042;2023-07-22T21:54:52;6.50;;;3.90;;
48403;SDS011;34202;52.536;6.042;2023-07-22T21:59:52;6.10;;;3.80;;
48403;SDS011;34202;52.536;6.042;2023-07-22T22:04:52;7.00;;;3.80;;
48403;SDS011;34202;52.536;6.042;2023-07-22T22:09:56;6.90;;;4.10;;
48403;SDS011;34202;52.536;6.042;2023-07-22T22:14:56;6.80;;;3.70;;
48403;SDS011;34202;52.536;6.042;2023-07-22T22:19:56;7.50;;;4.00;;
48403;SDS011;34202;52.536;6.042;2023-07-22T22:24:57;6.40;;;3.80;;
48403;SDS011;34202;52.536;6.042;2023-07-22T22:29:57;4.70;;;3.50;;
48403;SDS011;34202;52.536;6.042;2023-07-22T22:34:58;4.70;;;3.70;;
48403;SDS011;34202;52.536;6.042;2023-07-22T22:39:58;5.90;;;4.00;;
48403;SDS011;34202;52.536;6.042;2023-07-22T22:44:58;6.50;;;4.10;;
48403;SDS011;34202;52.536;6.042;2023-07-22T22:49:59;7.50;;;4.60;;
48403;SDS011;34202;52.536;6.042;2023-07-22T22:54:59;9.80;;;5.10;;
48403;SDS011;34202;52.536;6.042;2023-07-22T22:59:59;6.90;;;4.30;;
48403;SDS011;34202;52.536;6.042;2023-07-22T23:05:00;7.80;;;4.20;;
48403;SDS011;34202;52.536;6.042;2023-07-22T23:10:00;8.10;;;5.20;;
48403;SDS011;34202;52.536;6.042;2023-07-22T23:15:01;6.80;;;4.30;;
48403;SDS011;34202;52.536;6.042;2023-07-22T23:20:02;8.20;;;4.30;;
48403;SDS011;34202;52.536;6.042;2023-07-22T23:25:04;10.50;;;4.50;;
48403;SDS011;34202;52.536;6.042;2023-07-22T23:30:05;9.20;;;5.10;;
48403;SDS011;34202;52.536;6.042;2023-07-22T23:35:06;7.30;;;4.10;;
48403;SDS011;34202;52.536;6.042;2023-07-22T23:40:07;7.10;;;4.20;;
48403;SDS011;34202;52.536;6.042;2023-07-22T23:45:08;7.40;;;5.00;;
48403;SDS011;34202;52.536;6.042;2023-07-22T23:50:09;6.40;;;3.90;;
48403;SDS011;34202;52.536;6.042;2023-07-22T23:55:10;5.60;;;4.10;;
